createdAt,value
2023-01-19T00:00:20.490Z,86.51
2023-01-19T00:03:41.899Z,86.62
2023-01-19T00:06:43.320Z,86.55
2023-01-19T00:09:44.718Z,86.51
2023-01-19T00:12:46.253Z,86.52
2023-01-19T00:15:47.617Z,86.53
2023-01-19T00:18:51.202Z,86.50
2023-01-19T00:21:52.602Z,86.49
2023-01-19T00:24:54.061Z,86.42
2023-01-19T00:27:57.056Z,86.48
2023-01-19T00:30:59.176Z,86.22
2023-01-19T00:34:00.547Z,86.21
2023-01-19T00:37:03.604Z,86.32
2023-01-19T00:40:05.819Z,86.50
2023-01-19T00:43:07.270Z,86.75
2023-01-19T00:46:08.861Z,86.68
2023-01-19T00:49:10.586Z,86.38
2023-01-19T00:52:11.911Z,86.09
2023-01-19T00:55:15.365Z,85.86
2023-01-19T00:58:16.823Z,85.86
2023-01-19T01:01:18.677Z,85.81
2023-01-19T01:04:20.120Z,85.54
2023-01-19T01:07:22.814Z,85.61
2023-01-19T01:10:27.133Z,85.36
2023-01-19T01:13:28.866Z,85.47
2023-01-19T01:16:30.737Z,85.46
2023-01-19T01:19:33.645Z,85.81
2023-01-19T01:22:34.989Z,85.95
2023-01-19T01:25:37.945Z,85.96
2023-01-19T01:28:39.334Z,85.73
2023-01-19T01:31:41.180Z,85.62
2023-01-19T01:34:43.220Z,85.68
2023-01-19T01:37:44.668Z,85.50
2023-01-19T01:40:46.113Z,85.63
2023-01-19T01:43:54.230Z,86.01
2023-01-19T01:46:56.171Z,86.39
2023-01-19T01:50:21.638Z,86.46
2023-01-19T01:53:23.102Z,86.42
2023-01-19T01:56:32.097Z,86.49
2023-01-19T01:59:39.588Z,86.33
2023-01-19T02:02:50.742Z,86.23
2023-01-19T02:05:58.587Z,86.28
2023-01-19T02:09:28.455Z,86.48
2023-01-19T02:12:48.489Z,86.40
2023-01-19T02:15:57.126Z,86.19
2023-01-19T02:19:00.418Z,86.56
2023-01-19T02:22:17.744Z,86.48
2023-01-19T02:25:19.769Z,86.43
2023-01-19T02:28:21.313Z,86.74
2023-01-19T02:31:23.587Z,86.44
2023-01-19T02:34:25.649Z,86.40
2023-01-19T02:37:30.348Z,86.66
2023-01-19T02:40:32.497Z,86.68
2023-01-19T02:43:34.965Z,86.67
2023-01-19T02:46:37.811Z,86.56
2023-01-19T02:49:39.542Z,86.47
2023-01-19T02:52:40.884Z,86.57
2023-01-19T02:55:55.919Z,86.46
2023-01-19T02:59:15.086Z,86.28
2023-01-19T03:02:41.605Z,86.84
2023-01-19T03:06:05.132Z,86.79
2023-01-19T03:09:57.096Z,86.74
2023-01-19T03:13:10.493Z,86.50
2023-01-19T03:16:21.735Z,86.50
2023-01-19T03:19:27.076Z,86.77
2023-01-19T03:22:29.130Z,86.85
2023-01-19T03:25:34.603Z,86.89
2023-01-19T03:28:40.566Z,87.05
2023-01-19T03:31:46.765Z,87.03
2023-01-19T03:34:50.226Z,86.90
2023-01-19T03:37:57.439Z,86.88
2023-01-19T03:41:04.356Z,86.99
2023-01-19T03:44:07.058Z,86.93
2023-01-19T03:47:11.176Z,86.91
2023-01-19T03:50:23.924Z,86.82
2023-01-19T03:53:25.282Z,86.96
2023-01-19T03:56:26.696Z,86.99
2023-01-19T03:59:28.182Z,87.14
2023-01-19T04:02:29.625Z,87.10
2023-01-19T04:05:32.242Z,87.13
2023-01-19T04:08:33.662Z,87.07
2023-01-19T04:11:35.052Z,87.18
2023-01-19T04:14:36.615Z,86.92
2023-01-19T04:17:38.733Z,87.03
2023-01-19T04:20:52.090Z,86.99
2023-01-19T04:23:53.993Z,86.86
2023-01-19T04:26:55.339Z,86.86
2023-01-19T04:29:56.697Z,86.80
2023-01-19T04:32:59.182Z,86.81
2023-01-19T04:36:01.518Z,86.63
2023-01-19T04:39:03.065Z,86.64
2023-01-19T04:42:05.701Z,86.90
2023-01-19T04:45:07.821Z,86.89
2023-01-19T04:48:09.266Z,87.34
2023-01-19T04:51:11.262Z,87.36
2023-01-19T04:54:12.743Z,87.50
2023-01-19T04:57:14.315Z,87.24
2023-01-19T05:00:17.107Z,86.90
2023-01-19T05:03:19.247Z,86.89
2023-01-19T05:06:20.953Z,86.90
2023-01-19T05:09:22.370Z,87.19
2023-01-19T05:12:24.418Z,87.39
2023-01-19T05:15:25.772Z,87.33
2023-01-19T05:18:27.338Z,87.26
2023-01-19T05:21:29.096Z,87.11
2023-01-19T05:24:31.341Z,87.21
2023-01-19T05:27:32.648Z,87.14
2023-01-19T05:30:34.023Z,87.13
2023-01-19T05:33:35.445Z,86.94
2023-01-19T05:36:36.865Z,86.94
2023-01-19T05:39:38.232Z,86.97
2023-01-19T05:42:39.589Z,86.98
2023-01-19T05:45:41.093Z,87.15
2023-01-19T05:48:42.454Z,87.16
2023-01-19T05:51:44.777Z,87.25
2023-01-19T05:54:47.497Z,87.13
2023-01-19T05:57:49.360Z,87.15
2023-01-19T06:00:50.780Z,87.12
2023-01-19T06:03:52.379Z,87.31
2023-01-19T06:06:53.745Z,87.39
2023-01-19T06:09:55.135Z,87.35
2023-01-19T06:12:56.476Z,87.27
2023-01-19T06:16:02.119Z,87.49
2023-01-19T06:19:03.630Z,87.41
2023-01-19T06:22:05.433Z,87.39
2023-01-19T06:25:07.199Z,87.39
2023-01-19T06:28:08.569Z,87.49
2023-01-19T06:31:10.034Z,87.62
2023-01-19T06:34:11.663Z,87.62
2023-01-19T06:37:15.414Z,87.73
2023-01-19T06:40:17.041Z,87.75
2023-01-19T06:43:19.702Z,87.83
2023-01-19T06:46:21.327Z,87.93
2023-01-19T06:49:22.750Z,87.87
2023-01-19T06:52:24.295Z,88.05
2023-01-19T06:55:27.943Z,88.08
2023-01-19T06:58:30.467Z,88.14
2023-01-19T07:01:32.133Z,88.26
2023-01-19T07:04:34.836Z,88.15
2023-01-19T07:07:39.047Z,88.18
2023-01-19T07:11:24.564Z,88.15
2023-01-19T07:14:02.822Z,88.01
2023-01-19T07:17:04.237Z,88.05
2023-01-19T07:20:06.644Z,88.07
2023-01-19T07:23:08.716Z,88.06
2023-01-19T07:26:10.136Z,88.01
2023-01-19T07:29:11.499Z,87.90
2023-01-19T07:32:12.829Z,87.95
2023-01-19T07:35:14.950Z,87.87
2023-01-19T07:38:17.919Z,87.93
2023-01-19T07:41:19.275Z,87.98
2023-01-19T07:44:20.713Z,87.99
2023-01-19T07:47:22.123Z,87.92
2023-01-19T07:50:28.535Z,88.00
2023-01-19T07:53:30.148Z,88.18
2023-01-19T07:56:33.618Z,88.25
2023-01-19T07:59:35.210Z,88.07
2023-01-19T08:02:37.333Z,87.94
2023-01-19T08:05:39.106Z,87.86
2023-01-19T08:08:40.873Z,87.78
2023-01-19T08:11:42.254Z,87.76
2023-01-19T08:14:43.623Z,87.55
2023-01-19T08:17:45.057Z,87.50
2023-01-19T08:20:46.518Z,87.43
2023-01-19T08:23:55.263Z,87.42
2023-01-19T08:27:01.439Z,87.57
2023-01-19T08:30:03.268Z,87.52
2023-01-19T08:33:07.458Z,87.45
2023-01-19T08:36:08.974Z,87.44
2023-01-19T08:39:11.626Z,87.34
2023-01-19T08:42:13.040Z,87.55
2023-01-19T08:45:14.420Z,87.68
2023-01-19T08:48:18.335Z,87.61
2023-01-19T08:51:19.960Z,87.66
2023-01-19T08:54:22.537Z,87.62
2023-01-19T08:57:23.958Z,87.82
2023-01-19T09:00:26.530Z,87.77
2023-01-19T09:03:27.958Z,87.79
2023-01-19T09:06:29.489Z,87.79
2023-01-19T09:09:30.906Z,87.73
2023-01-19T09:12:32.254Z,87.86
2023-01-19T09:15:36.782Z,87.90
2023-01-19T09:18:38.926Z,87.84
2023-01-19T09:21:40.314Z,87.90
2023-01-19T09:24:41.641Z,87.76
2023-01-19T09:27:43.046Z,87.77
2023-01-19T09:30:44.640Z,87.86
2023-01-19T09:33:46.137Z,87.84
2023-01-19T09:36:47.804Z,87.97
2023-01-19T09:39:49.167Z,87.85
2023-01-19T09:43:15.992Z,87.92
2023-01-19T09:46:38.032Z,87.93
2023-01-19T09:49:44.962Z,87.96
2023-01-19T09:52:56.927Z,88.09
2023-01-19T09:55:58.423Z,88.04
2023-01-19T09:59:01.186Z,87.97
2023-01-19T10:02:10.335Z,87.97
2023-01-19T10:05:24.871Z,87.77
2023-01-19T10:08:51.965Z,87.81
2023-01-19T10:12:16.136Z,87.58
2023-01-19T10:15:37.066Z,87.39
2023-01-19T10:18:45.270Z,87.19
2023-01-19T10:21:49.527Z,87.21
2023-01-19T10:24:54.160Z,87.34
2023-01-19T10:27:58.867Z,87.28
2023-01-19T10:31:00.621Z,87.15
2023-01-19T10:34:03.231Z,87.23
2023-01-19T10:37:16.581Z,87.17
2023-01-19T10:40:42.367Z,87.30
2023-01-19T10:43:45.661Z,87.22
2023-01-19T10:46:49.342Z,86.99
2023-01-19T10:49:51.504Z,86.98
2023-01-19T10:52:58.737Z,86.93
2023-01-19T10:56:17.058Z,87.07
2023-01-19T10:59:36.809Z,87.27
2023-01-19T11:02:50.080Z,87.30
2023-01-19T11:05:51.503Z,87.43
2023-01-19T11:09:08.779Z,87.56
2023-01-19T11:12:40.279Z,87.50
2023-01-19T11:15:52.573Z,87.52
2023-01-19T11:18:56.479Z,87.12
2023-01-19T11:22:14.686Z,87.06
2023-01-19T11:25:30.282Z,86.88
2023-01-19T11:28:42.991Z,87.03
2023-01-19T11:31:46.864Z,87.25
2023-01-19T11:34:49.733Z,87.11
2023-01-19T11:38:05.565Z,87.13
2023-01-19T11:41:16.120Z,87.34
2023-01-19T11:44:25.598Z,86.96
2023-01-19T11:47:35.165Z,86.93
2023-01-19T11:50:44.493Z,86.88
2023-01-19T11:53:50.803Z,87.04
2023-01-19T11:56:55.234Z,86.22
2023-01-19T12:00:02.704Z,85.94
2023-01-19T12:03:32.423Z,86.07
2023-01-19T12:06:38.602Z,85.82
2023-01-19T12:09:46.716Z,85.48
2023-01-19T12:12:49.136Z,85.59
2023-01-19T12:15:57.205Z,86.03
2023-01-19T12:19:15.236Z,86.13
2023-01-19T12:22:18.309Z,86.18
2023-01-19T12:25:24.115Z,85.77
2023-01-19T12:28:32.197Z,85.82
2023-01-19T12:31:34.458Z,85.50
2023-01-19T12:34:45.931Z,85.83
2023-01-19T12:37:47.742Z,86.03
2023-01-19T12:40:49.194Z,85.93
2023-01-19T12:44:21.561Z,86.20
2023-01-19T12:47:23.718Z,86.32
2023-01-19T12:50:26.052Z,86.20
2023-01-19T12:53:29.974Z,86.21
2023-01-19T12:56:34.906Z,86.13
2023-01-19T12:59:38.503Z,85.88
2023-01-19T13:02:46.101Z,85.98
2023-01-19T13:05:55.536Z,85.75
2023-01-19T13:08:59.980Z,85.58
2023-01-19T13:12:13.803Z,85.36
2023-01-19T13:15:35.221Z,85.75
2023-01-19T13:18:40.918Z,85.84
2023-01-19T13:21:47.627Z,85.72
2023-01-19T13:25:09.737Z,85.15
2023-01-19T13:28:15.486Z,85.21
2023-01-19T13:31:18.641Z,85.69
2023-01-19T13:34:22.895Z,86.04
2023-01-19T13:37:43.808Z,85.90
2023-01-19T13:40:45.650Z,85.87
2023-01-19T13:43:52.030Z,85.88
2023-01-19T13:46:55.755Z,85.55
2023-01-19T13:49:58.410Z,85.43
2023-01-19T13:53:00.838Z,85.50
2023-01-19T13:56:16.478Z,85.14
2023-01-19T13:59:17.902Z,84.89
2023-01-19T14:02:20.697Z,85.14
2023-01-19T14:05:32.810Z,85.42
2023-01-19T14:08:34.270Z,85.34
2023-01-19T14:11:36.150Z,85.49
2023-01-19T14:14:37.951Z,85.65
2023-01-19T14:17:41.405Z,85.91
2023-01-19T14:21:06.839Z,85.54
2023-01-19T14:24:19.511Z,85.16
2023-01-19T14:27:24.287Z,85.12
2023-01-19T14:30:26.228Z,85.47
2023-01-19T14:33:46.320Z,85.62
2023-01-19T14:36:50.966Z,85.64
2023-01-19T14:39:57.847Z,85.41
2023-01-19T14:43:05.065Z,85.31
2023-01-19T14:46:06.522Z,85.40
2023-01-19T14:49:20.570Z,85.40
2023-01-19T14:52:30.599Z,85.42
2023-01-19T14:55:50.002Z,85.36
2023-01-19T14:58:51.566Z,85.73
2023-01-19T15:01:53.147Z,86.01
2023-01-19T15:04:57.050Z,86.08
2023-01-19T15:07:58.533Z,85.77
2023-01-19T15:11:10.117Z,85.71
2023-01-19T15:14:13.882Z,85.71
2023-01-19T15:17:24.513Z,85.55
2023-01-19T15:20:26.018Z,85.52
2023-01-19T15:23:28.931Z,85.67
2023-01-19T15:26:30.399Z,85.89
2023-01-19T15:29:32.362Z,85.82
2023-01-19T15:32:33.816Z,85.88
2023-01-19T15:35:35.200Z,85.80
2023-01-19T15:38:36.538Z,86.05
2023-01-19T15:41:39.489Z,85.77
2023-01-19T15:44:40.907Z,85.77
2023-01-19T15:47:42.385Z,85.55
2023-01-19T15:50:44.739Z,85.75
2023-01-19T15:53:47.721Z,85.78
2023-01-19T15:56:50.257Z,85.97
2023-01-19T15:59:52.756Z,86.22
2023-01-19T16:02:54.385Z,86.04
2023-01-19T16:05:59.811Z,86.07
2023-01-19T16:09:03.141Z,86.47
2023-01-19T16:12:04.744Z,86.46
2023-01-19T16:15:06.607Z,86.40
2023-01-19T16:18:08.022Z,86.50
2023-01-19T16:21:09.609Z,86.41
2023-01-19T16:24:11.106Z,86.02
2023-01-19T16:27:12.504Z,86.00
2023-01-19T16:30:15.658Z,85.98
2023-01-19T16:33:17.044Z,85.87
2023-01-19T16:36:24.721Z,85.88
2023-01-19T16:39:26.039Z,86.25
2023-01-19T16:42:27.456Z,86.49
2023-01-19T16:45:28.825Z,86.63
2023-01-19T16:48:31.567Z,86.54
2023-01-19T16:51:33.129Z,86.54
2023-01-19T16:54:34.577Z,86.37
2023-01-19T16:57:40.667Z,86.06
2023-01-19T17:00:42.127Z,86.03
2023-01-19T17:03:44.094Z,85.99
2023-01-19T17:06:49.453Z,86.20
2023-01-19T17:09:51.867Z,86.34
2023-01-19T17:12:53.373Z,86.46
2023-01-19T17:16:00.166Z,86.33
2023-01-19T17:19:04.155Z,86.30
2023-01-19T17:22:05.871Z,86.08
2023-01-19T17:25:07.673Z,86.33
2023-01-19T17:28:09.091Z,86.57
2023-01-19T17:31:13.218Z,86.84
2023-01-19T17:34:14.678Z,86.82
2023-01-19T17:37:16.105Z,86.75
2023-01-19T17:40:17.657Z,87.11
2023-01-19T17:43:19.007Z,87.26
2023-01-19T17:46:23.814Z,87.20
2023-01-19T17:49:25.276Z,86.62
2023-01-19T17:52:26.797Z,86.27
2023-01-19T17:55:28.227Z,86.15
2023-01-19T17:58:30.886Z,86.36
2023-01-19T18:01:33.070Z,86.70
2023-01-19T18:04:37.565Z,86.94
2023-01-19T18:07:39.253Z,87.02
2023-01-19T18:10:41.705Z,86.68
2023-01-19T18:13:44.708Z,86.09
2023-01-19T18:16:46.326Z,86.16
2023-01-19T18:19:48.440Z,86.74
2023-01-19T18:22:50.512Z,86.76
2023-01-19T18:26:12.207Z,86.37
2023-01-19T18:29:15.938Z,86.30
2023-01-19T18:32:17.416Z,86.63
2023-01-19T18:35:18.858Z,86.98
2023-01-19T18:38:20.440Z,86.70
2023-01-19T18:41:21.873Z,86.61
2023-01-19T18:44:23.356Z,86.60
2023-01-19T18:47:24.747Z,86.34
2023-01-19T18:50:26.199Z,86.43
2023-01-19T18:53:27.549Z,86.79
2023-01-19T18:56:29.032Z,86.94
2023-01-19T18:59:30.385Z,86.88
2023-01-19T19:02:32.499Z,86.81
2023-01-19T19:05:34.017Z,86.99
2023-01-19T19:08:35.567Z,87.11
2023-01-19T19:11:37.015Z,87.00
2023-01-19T19:14:38.512Z,86.98
2023-01-19T19:17:39.902Z,86.87
2023-01-19T19:20:42.594Z,86.93
2023-01-19T19:23:53.185Z,86.83
2023-01-19T19:26:54.743Z,86.32
2023-01-19T19:29:56.146Z,85.80
2023-01-19T19:32:59.235Z,85.71
2023-01-19T19:36:01.099Z,85.85
2023-01-19T19:39:05.624Z,85.95
2023-01-19T19:42:07.114Z,85.63
2023-01-19T19:45:09.327Z,85.46
2023-01-19T19:48:10.702Z,85.33
2023-01-19T19:51:19.250Z,85.40
2023-01-19T19:54:21.017Z,85.71
2023-01-19T19:57:22.488Z,85.98
2023-01-19T20:00:23.978Z,86.20
2023-01-19T20:03:26.438Z,86.23
2023-01-19T20:06:27.864Z,86.24
2023-01-19T20:09:29.295Z,86.08
2023-01-19T20:12:30.686Z,85.97
2023-01-19T20:15:36.277Z,85.94
2023-01-19T20:18:39.711Z,85.96
2023-01-19T20:21:43.394Z,85.85
2023-01-19T20:24:44.803Z,86.02
2023-01-19T20:27:46.782Z,86.10
2023-01-19T20:30:48.185Z,86.15
2023-01-19T20:33:51.296Z,86.02
2023-01-19T20:36:53.261Z,86.18
2023-01-19T20:39:54.804Z,86.35
2023-01-19T20:42:56.148Z,86.66
2023-01-19T20:45:58.055Z,86.87
2023-01-19T20:48:59.422Z,86.76
2023-01-19T20:52:01.376Z,86.68
2023-01-19T20:55:03.243Z,86.55
2023-01-19T20:58:04.978Z,86.43
2023-01-19T21:01:21.006Z,86.42
2023-01-19T21:04:22.594Z,86.44
2023-01-19T21:07:24.042Z,86.41
2023-01-19T21:10:25.788Z,86.81
2023-01-19T21:13:27.439Z,86.84
2023-01-19T21:16:32.932Z,86.67
2023-01-19T21:19:34.492Z,86.34
2023-01-19T21:22:35.850Z,86.18
2023-01-19T21:25:37.653Z,86.04
2023-01-19T21:28:39.706Z,86.05
2023-01-19T21:31:41.501Z,85.92
2023-01-19T21:34:43.698Z,85.92
2023-01-19T21:37:45.143Z,85.99
2023-01-19T21:40:46.913Z,86.05
2023-01-19T21:43:48.254Z,86.31
2023-01-19T21:46:49.646Z,86.39
2023-01-19T21:49:50.958Z,86.42
2023-01-19T21:52:52.343Z,86.43
2023-01-19T21:55:53.890Z,86.27
2023-01-19T21:58:56.677Z,86.52
2023-01-19T22:01:58.607Z,86.55
2023-01-19T22:05:00.506Z,86.49
2023-01-19T22:08:01.998Z,86.42
2023-01-19T22:11:08.299Z,86.31
2023-01-19T22:14:10.799Z,86.27
2023-01-19T22:17:12.219Z,86.16
2023-01-19T22:20:13.635Z,86.22
2023-01-19T22:23:15.096Z,86.36
2023-01-19T22:26:17.365Z,86.20
2023-01-19T22:29:18.950Z,86.31
2023-01-19T22:32:20.359Z,86.32
2023-01-19T22:35:21.735Z,86.25
2023-01-19T22:38:23.096Z,86.12
2023-01-19T22:41:33.916Z,86.47
2023-01-19T22:44:35.426Z,86.66
2023-01-19T22:47:36.797Z,86.84
2023-01-19T22:50:38.095Z,86.95
2023-01-19T22:53:39.985Z,86.91
2023-01-19T22:56:42.207Z,86.83
2023-01-19T22:59:43.635Z,86.80
2023-01-19T23:02:45.000Z,86.69
2023-01-19T23:05:46.528Z,86.95
2023-01-19T23:08:47.949Z,87.12
2023-01-19T23:11:50.680Z,87.26
2023-01-19T23:14:52.094Z,87.16
2023-01-19T23:17:53.509Z,86.93
2023-01-19T23:20:55.111Z,86.85
2023-01-19T23:23:59.084Z,86.31
2023-01-19T23:27:01.574Z,85.94
2023-01-19T23:30:03.457Z,86.03
2023-01-19T23:33:04.833Z,86.12
2023-01-19T23:36:07.939Z,86.37
2023-01-19T23:39:19.979Z,86.44
2023-01-19T23:42:21.515Z,86.65
2023-01-19T23:45:23.009Z,86.63
2023-01-19T23:48:24.376Z,86.86
2023-01-19T23:51:28.064Z,86.85
2023-01-19T23:54:29.407Z,86.75
2023-01-19T23:57:30.758Z,87.01
